createdAt,value
2023-04-15T00:01:12.075Z,100530.59
2023-04-15T00:03:39.479Z,100537.56
2023-04-15T00:06:07.007Z,100540.16
2023-04-15T00:08:34.290Z,100534.03
2023-04-15T00:11:03.419Z,100526.19
2023-04-15T00:13:30.821Z,100525.28
2023-04-15T00:15:58.257Z,100531.38
2023-04-15T00:18:25.569Z,100520.91
2023-04-15T00:20:52.757Z,100521.78
2023-04-15T00:23:20.676Z,100525.22
2023-04-15T00:25:47.818Z,100520.84
2023-04-15T00:28:15.136Z,100520.84
2023-04-15T00:30:42.411Z,100519.97
2023-04-15T00:33:09.958Z,100526.09
2023-04-15T00:35:38.382Z,100526.97
2023-04-15T00:38:08.267Z,100525.22
2023-04-15T00:40:35.938Z,100522.59
2023-04-15T00:43:04.218Z,100518.22
2023-04-15T00:45:32.212Z,100522.59
2023-04-15T00:47:59.947Z,100528.72
2023-04-15T00:50:26.983Z,100537.41
2023-04-15T00:52:54.255Z,100535.66
2023-04-15T00:55:21.299Z,100534.78
2023-04-15T00:57:49.042Z,100536.53
2023-04-15T01:00:16.671Z,100541.75
2023-04-15T01:05:22.849Z,100534.75
2023-04-15T01:08:10.702Z,100531.25
2023-04-15T01:11:01.507Z,100525.13
2023-04-15T01:13:49.193Z,100523.34
2023-04-15T01:16:39.829Z,100523.34
2023-04-15T01:19:27.695Z,100521.59
2023-04-15T01:22:15.486Z,100525.13
2023-04-15T01:25:12.375Z,100518.97
2023-04-15T01:28:00.700Z,100520.72
2023-04-15T01:30:48.585Z,100526.84
2023-04-15T01:33:36.868Z,100525.09
2023-04-15T01:36:24.337Z,100529.44
2023-04-15T01:39:11.805Z,100525.09
2023-04-15T01:41:59.264Z,100523.34
2023-04-15T01:44:46.697Z,100529.44
2023-04-15T01:47:34.011Z,100530.31
2023-04-15T01:50:21.782Z,100523.31
2023-04-15T01:53:09.664Z,100529.44
2023-04-15T01:55:57.281Z,100530.28
2023-04-15T01:58:44.849Z,100529.38
2023-04-15T02:01:32.569Z,100531.09
2023-04-15T02:04:19.840Z,100526.69
2023-04-15T02:07:08.808Z,100518.81
2023-04-15T02:09:56.319Z,100531.00
2023-04-15T02:12:43.972Z,100529.25
2023-04-15T02:15:31.782Z,100524.81
2023-04-15T02:18:19.499Z,100532.63
2023-04-15T02:21:07.401Z,100537.84
2023-04-15T02:23:54.755Z,100543.06
2023-04-15T02:26:42.306Z,100539.56
2023-04-15T02:29:31.499Z,100540.44
2023-04-15T02:32:18.919Z,100538.66
2023-04-15T02:35:09.050Z,100543.00
2023-04-15T02:37:56.613Z,100550.00
2023-04-15T02:40:44.133Z,100552.63
2023-04-15T02:43:31.653Z,100559.59
2023-04-15T02:46:19.025Z,100561.34
2023-04-15T02:49:06.577Z,100555.22
2023-04-15T02:51:54.126Z,100554.31
2023-04-15T02:54:41.629Z,100557.75
2023-04-15T02:57:08.860Z,100567.34
2023-04-15T02:59:35.927Z,100564.69
2023-04-15T03:02:03.125Z,100566.41
2023-04-15T03:04:30.924Z,100569.88
2023-04-15T03:06:57.936Z,100563.72
2023-04-15T03:09:25.195Z,100559.34
2023-04-15T03:11:53.641Z,100561.91
2023-04-15T03:14:20.931Z,100561.88
2023-04-15T03:16:50.691Z,100567.09
2023-04-15T03:19:18.104Z,100563.53
2023-04-15T03:21:45.085Z,100566.13
2023-04-15T03:24:12.073Z,100569.56
2023-04-15T03:26:39.217Z,100571.28
2023-04-15T03:29:06.587Z,100577.38
2023-04-15T03:31:33.643Z,100578.19
2023-04-15T03:34:00.915Z,100577.31
2023-04-15T03:36:32.319Z,100573.81
2023-04-15T03:39:00.161Z,100576.41
2023-04-15T03:41:28.440Z,100580.75
2023-04-15T03:43:55.664Z,100579.84
2023-04-15T03:46:22.795Z,100578.09
2023-04-15T03:48:50.112Z,100580.66
2023-04-15T03:51:17.334Z,100584.16
2023-04-15T03:53:44.323Z,100586.75
2023-04-15T03:56:11.790Z,100592.00
2023-04-15T03:58:38.803Z,100596.28
2023-04-15T04:01:06.053Z,100597.16
2023-04-15T04:03:33.655Z,100598.88
2023-04-15T04:06:01.106Z,100602.34
2023-04-15T04:08:28.141Z,100605.84
2023-04-15T04:10:55.238Z,100611.88
2023-04-15T04:13:22.419Z,100616.22
2023-04-15T04:15:49.577Z,100617.09
2023-04-15T04:18:16.846Z,100627.56
2023-04-15T04:20:44.018Z,100629.28
2023-04-15T04:23:11.612Z,100626.69
2023-04-15T04:25:39.295Z,100633.66
2023-04-15T04:28:06.274Z,100638.00
2023-04-15T04:30:33.518Z,100644.97
2023-04-15T04:33:00.851Z,100651.91
2023-04-15T04:35:28.075Z,100651.91
2023-04-15T04:37:55.097Z,100660.63
2023-04-15T04:40:22.203Z,100661.50
2023-04-15T04:42:49.575Z,100660.56
2023-04-15T04:45:16.636Z,100665.78
2023-04-15T04:47:43.762Z,100662.28
2023-04-15T04:50:13.853Z,100669.25
2023-04-15T04:52:41.199Z,100668.38
2023-04-15T04:55:08.911Z,100674.50
2023-04-15T04:57:39.738Z,100679.72
2023-04-15T05:00:09.248Z,100684.97
2023-04-15T05:02:36.851Z,100680.63
2023-04-15T05:05:04.299Z,100687.66
2023-04-15T05:07:31.441Z,100685.06
2023-04-15T05:09:58.506Z,100693.84
2023-04-15T05:12:26.124Z,100703.47
2023-04-15T05:14:53.132Z,100702.63
2023-04-15T05:17:20.236Z,100705.31
2023-04-15T05:19:47.403Z,100710.59
2023-04-15T05:22:14.511Z,100713.28
2023-04-15T05:24:41.645Z,100722.03
2023-04-15T05:27:10.589Z,100725.59
2023-04-15T05:29:37.704Z,100726.44
2023-04-15T05:32:05.135Z,100726.47
2023-04-15T05:34:32.112Z,100731.69
2023-04-15T05:36:59.160Z,100735.19
2023-04-15T05:39:26.695Z,100741.31
2023-04-15T05:41:54.356Z,100750.97
2023-04-15T05:44:21.373Z,100757.97
2023-04-15T05:46:48.378Z,100765.00
2023-04-15T05:49:15.596Z,100769.41
2023-04-15T05:51:42.616Z,100766.81
2023-04-15T05:54:10.416Z,100775.56
2023-04-15T05:56:37.408Z,100777.38
2023-04-15T05:59:04.375Z,100779.16
2023-04-15T06:01:31.484Z,100784.44
2023-04-15T06:03:58.598Z,100788.88
2023-04-15T06:06:27.352Z,100780.25
2023-04-15T06:08:55.949Z,100782.09
2023-04-15T06:11:23.322Z,100795.31
2023-04-15T06:13:50.586Z,100799.81
2023-04-15T06:16:18.132Z,100798.19
2023-04-15T06:18:45.345Z,100800.97
2023-04-15T06:21:12.740Z,100806.34
2023-04-15T06:23:41.391Z,100807.31
2023-04-15T06:26:10.725Z,100810.91
2023-04-15T06:28:37.759Z,100823.25
2023-04-15T06:31:04.896Z,100825.94
2023-04-15T06:33:32.407Z,100833.00
2023-04-15T06:35:59.528Z,100837.44
2023-04-15T06:38:26.524Z,100838.38
2023-04-15T06:40:53.672Z,100842.75
2023-04-15T06:43:21.008Z,100850.69
2023-04-15T06:45:48.151Z,100852.44
2023-04-15T06:48:15.629Z,100854.19
2023-04-15T06:50:43.125Z,100861.25
2023-04-15T06:53:10.212Z,100868.31
2023-04-15T06:55:37.223Z,100869.25
2023-04-15T06:58:04.217Z,100875.44
2023-04-15T07:00:31.386Z,100886.88
2023-04-15T07:02:58.565Z,100883.44
2023-04-15T07:05:26.692Z,100892.25
2023-04-15T07:07:53.680Z,100894.03
2023-04-15T07:10:20.912Z,100901.97
2023-04-15T07:12:49.378Z,100901.16
2023-04-15T07:15:16.872Z,100904.72
2023-04-15T07:17:44.038Z,100899.50
2023-04-15T07:20:12.783Z,100912.72
2023-04-15T07:22:40.380Z,100915.38
2023-04-15T07:25:08.969Z,100914.53
2023-04-15T07:27:36.385Z,100911.94
2023-04-15T07:30:03.808Z,100923.38
2023-04-15T07:32:31.291Z,100933.03
2023-04-15T07:34:58.411Z,100929.56
2023-04-15T07:37:25.535Z,100941.84
2023-04-15T07:39:53.140Z,100938.41
2023-04-15T07:42:20.286Z,100941.91
2023-04-15T07:44:47.512Z,100946.31
2023-04-15T07:47:14.569Z,100951.63
2023-04-15T07:49:43.483Z,100952.50
2023-04-15T07:52:11.106Z,100955.13
2023-04-15T07:54:38.230Z,100960.38
2023-04-15T07:57:05.265Z,100953.38
2023-04-15T07:59:33.764Z,100960.44
2023-04-15T08:02:00.978Z,100972.72
2023-04-15T08:04:28.690Z,100975.34
2023-04-15T08:06:55.909Z,100988.50
2023-04-15T08:09:23.000Z,100980.56
2023-04-15T08:11:51.343Z,100996.38
2023-04-15T08:14:18.407Z,100997.22
2023-04-15T08:16:47.060Z,101003.38
2023-04-15T08:19:14.163Z,101008.59
2023-04-15T08:21:41.254Z,101012.94
2023-04-15T08:24:08.360Z,101018.25
2023-04-15T08:26:35.650Z,101022.59
2023-04-15T08:29:02.958Z,101021.69
2023-04-15T08:31:30.895Z,101026.94
2023-04-15T08:33:59.447Z,101024.25
2023-04-15T08:36:27.179Z,101032.16
2023-04-15T08:38:54.282Z,101025.06
2023-04-15T08:41:24.183Z,101031.16
2023-04-15T08:44:02.104Z,101037.25
2023-04-15T08:46:31.582Z,101036.28
2023-04-15T08:48:59.314Z,101050.34
2023-04-15T08:51:27.414Z,101047.63
2023-04-15T08:53:55.321Z,101051.97
2023-04-15T08:56:27.072Z,101058.97
2023-04-15T08:58:54.752Z,101063.34
2023-04-15T09:01:23.160Z,101061.53
2023-04-15T09:03:51.072Z,101074.69
2023-04-15T09:06:19.055Z,101074.59
2023-04-15T09:08:46.181Z,101092.19
2023-04-15T09:11:15.216Z,101095.72
2023-04-15T09:13:42.788Z,101100.97
2023-04-15T09:16:10.413Z,101115.91
2023-04-15T09:18:39.172Z,101107.91
2023-04-15T09:21:12.811Z,101117.63
2023-04-15T09:23:53.834Z,101124.69
2023-04-15T09:26:30.757Z,101135.34
2023-04-15T09:29:10.299Z,101126.56
2023-04-15T09:31:37.931Z,101133.59
2023-04-15T09:34:06.209Z,101139.69
2023-04-15T09:36:51.149Z,101146.66
2023-04-15T09:39:18.354Z,101142.16
2023-04-15T09:41:45.780Z,101142.84
2023-04-15T09:44:27.078Z,101145.31
2023-04-15T09:46:54.185Z,101141.66
2023-04-15T09:49:21.631Z,101146.91
2023-04-15T09:52:03.957Z,101153.94
2023-04-15T09:54:37.517Z,101153.84
2023-04-15T09:57:10.437Z,101151.09
2023-04-15T09:59:37.777Z,101156.34
2023-04-15T10:02:07.268Z,101153.72
2023-04-15T10:04:39.987Z,101153.72
2023-04-15T10:07:12.201Z,101153.66
2023-04-15T10:09:39.964Z,101153.66
2023-04-15T10:12:07.649Z,101155.38
2023-04-15T10:14:39.008Z,101167.59
2023-04-15T10:17:07.909Z,101173.72
2023-04-15T10:19:38.210Z,101170.94
2023-04-15T10:22:06.656Z,101173.44
2023-04-15T10:24:34.303Z,101173.28
2023-04-15T10:27:03.803Z,101173.97
2023-04-15T10:29:31.335Z,101172.03
2023-04-15T10:32:00.619Z,101186.00
2023-04-15T10:34:28.699Z,101178.81
2023-04-15T10:37:01.620Z,101169.88
2023-04-15T10:39:34.740Z,101178.56
2023-04-15T10:42:10.004Z,101178.66
2023-04-15T10:44:39.308Z,101181.34
2023-04-15T10:47:15.773Z,101197.44
2023-04-15T10:50:01.448Z,101183.28
2023-04-15T10:52:29.972Z,101190.34
2023-04-15T10:55:18.916Z,101195.56
2023-04-15T10:57:46.160Z,101189.19
2023-04-15T11:00:19.167Z,101192.56
2023-04-15T11:02:59.672Z,101211.81
2023-04-15T11:05:42.115Z,101191.31
2023-04-15T11:08:13.754Z,101186.63
2023-04-15T11:10:41.091Z,101204.09
2023-04-15T11:13:11.151Z,101202.16
2023-04-15T11:15:42.293Z,101198.50
2023-04-15T11:18:18.813Z,101203.06
2023-04-15T11:20:48.255Z,101206.44
2023-04-15T11:23:17.272Z,101207.13
2023-04-15T11:25:44.877Z,101206.91
2023-04-15T11:28:13.474Z,101208.56
2023-04-15T11:30:42.526Z,101213.66
2023-04-15T11:33:14.775Z,101223.34
2023-04-15T11:35:44.972Z,101220.75
2023-04-15T11:38:15.381Z,101226.28
2023-04-15T11:40:46.847Z,101214.69
2023-04-15T11:43:21.061Z,101223.31
2023-04-15T11:46:01.625Z,101224.72
2023-04-15T11:48:34.601Z,101227.06
2023-04-15T11:51:07.402Z,101237.69
2023-04-15T11:53:52.078Z,101244.66
2023-04-15T11:56:27.431Z,101244.84
2023-04-15T11:58:58.747Z,101245.13
2023-04-15T12:01:37.351Z,101244.81
2023-04-15T12:04:20.657Z,101241.16
2023-04-15T12:06:49.447Z,101252.78
2023-04-15T12:09:17.450Z,101254.66
2023-04-15T12:11:50.210Z,101251.06
2023-04-15T12:14:26.851Z,101236.75
2023-04-15T12:17:14.161Z,101264.31
2023-04-15T12:19:43.294Z,101260.63
2023-04-15T12:22:14.266Z,101246.34
2023-04-15T12:24:49.599Z,101273.25
2023-04-15T12:27:17.760Z,101264.59
2023-04-15T12:29:45.311Z,101261.50
2023-04-15T12:32:17.581Z,101271.56
2023-04-15T12:34:54.538Z,101285.97
2023-04-15T12:37:22.214Z,101283.41
2023-04-15T12:39:51.122Z,101278.09
2023-04-15T12:42:19.075Z,101276.00
2023-04-15T12:44:47.042Z,101292.47
2023-04-15T12:47:14.481Z,101301.44
2023-04-15T12:49:41.651Z,101299.69
2023-04-15T12:52:08.933Z,101303.88
2023-04-15T12:54:36.374Z,101294.00
2023-04-15T12:57:06.873Z,101294.09
2023-04-15T12:59:34.975Z,101305.06
2023-04-15T13:02:02.973Z,101317.31
2023-04-15T13:04:33.299Z,101314.50
2023-04-15T13:07:01.523Z,101310.66
2023-04-15T13:09:28.612Z,101312.00
2023-04-15T13:11:57.794Z,101317.28
2023-04-15T13:14:26.039Z,101327.16
2023-04-15T13:16:53.868Z,101336.13
2023-04-15T13:19:20.823Z,101337.13
2023-04-15T13:21:48.393Z,101336.06
2023-04-15T13:24:15.801Z,101320.69
2023-04-15T13:26:42.819Z,101332.22
2023-04-15T13:29:10.082Z,101331.41
2023-04-15T13:31:37.072Z,101350.84
2023-04-15T13:34:04.350Z,101338.84
2023-04-15T13:36:31.960Z,101347.13
2023-04-15T13:39:00.005Z,101350.03
2023-04-15T13:41:27.053Z,101347.22
2023-04-15T13:43:54.067Z,101348.69
2023-04-15T13:46:21.097Z,101354.91
2023-04-15T13:48:48.137Z,101353.88
2023-04-15T13:51:15.431Z,101349.47
2023-04-15T13:53:42.587Z,101359.91
2023-04-15T13:56:10.552Z,101371.75
2023-04-15T13:58:38.521Z,101356.22
2023-04-15T14:01:07.399Z,101377.53
2023-04-15T14:03:38.365Z,101379.16
2023-04-15T14:06:06.942Z,101366.03
2023-04-15T14:08:34.395Z,101363.75
2023-04-15T14:11:01.789Z,101371.97
2023-04-15T14:13:28.999Z,101377.66
2023-04-15T14:15:57.511Z,101374.06
2023-04-15T14:18:24.507Z,101369.78
2023-04-15T14:20:51.985Z,101380.53
2023-04-15T14:23:19.112Z,101379.81
2023-04-15T14:25:48.174Z,101392.03
2023-04-15T14:28:15.899Z,101384.66
2023-04-15T14:30:42.995Z,101398.03
2023-04-15T14:33:10.320Z,101406.44
2023-04-15T14:35:38.032Z,101403.34
2023-04-15T14:38:06.165Z,101415.69
2023-04-15T14:40:34.227Z,101406.78
2023-04-15T14:43:01.329Z,101415.59
2023-04-15T14:45:28.547Z,101423.09
2023-04-15T14:47:56.009Z,101415.56
2023-04-15T14:50:23.388Z,101429.88
2023-04-15T14:52:50.620Z,101430.81
2023-04-15T14:55:17.752Z,101438.41
2023-04-15T14:57:45.008Z,101436.28
2023-04-15T15:00:15.827Z,101450.38
2023-04-15T15:02:43.914Z,101444.66
2023-04-15T15:05:12.003Z,101451.44
2023-04-15T15:07:41.085Z,101462.59
2023-04-15T15:10:08.637Z,101469.41
2023-04-15T15:12:36.181Z,101465.53
2023-04-15T15:15:12.446Z,101461.63
2023-04-15T15:17:47.086Z,101468.28
2023-04-15T15:20:14.211Z,101474.84
2023-04-15T15:22:41.287Z,101470.84
2023-04-15T15:25:08.491Z,101474.81
2023-04-15T15:27:38.105Z,101474.94
2023-04-15T15:30:07.070Z,101468.75
2023-04-15T15:32:34.236Z,101466.84
2023-04-15T15:35:01.475Z,101475.59
2023-04-15T15:37:30.636Z,101479.66
2023-04-15T15:39:57.776Z,101482.19
2023-04-15T15:42:26.120Z,101486.84
2023-04-15T15:44:53.354Z,101497.31
2023-04-15T15:47:22.169Z,101508.16
2023-04-15T15:49:49.285Z,101503.94
2023-04-15T15:52:16.432Z,101509.00
2023-04-15T15:54:43.488Z,101517.34
2023-04-15T15:57:11.142Z,101518.22
2023-04-15T15:59:43.536Z,101519.38
2023-04-15T16:02:12.024Z,101525.72
2023-04-15T16:04:40.438Z,101533.81
2023-04-15T16:07:07.951Z,101536.56
2023-04-15T16:09:35.305Z,101544.22
2023-04-15T16:12:04.005Z,101539.50
2023-04-15T16:14:31.297Z,101540.84
2023-04-15T16:17:01.362Z,101541.94
2023-04-15T16:19:28.340Z,101543.59
2023-04-15T16:21:55.540Z,101561.16
2023-04-15T16:24:22.553Z,101552.28
2023-04-15T16:26:49.548Z,101557.56
2023-04-15T16:29:16.746Z,101564.34
2023-04-15T16:31:43.770Z,101569.50
2023-04-15T16:34:10.806Z,101573.81
2023-04-15T16:36:40.655Z,101583.56
2023-04-15T16:39:07.906Z,101586.78
2023-04-15T16:41:35.412Z,101590.41
2023-04-15T16:44:03.378Z,101592.66
2023-04-15T16:46:31.644Z,101596.66
2023-04-15T16:48:59.053Z,101596.91
2023-04-15T16:51:27.329Z,101593.84
2023-04-15T16:53:54.472Z,101589.16
2023-04-15T16:56:22.072Z,101604.41
2023-04-15T16:58:49.221Z,101610.13
2023-04-15T17:01:16.397Z,101609.59
2023-04-15T17:03:43.992Z,101614.31
2023-04-15T17:06:11.318Z,101606.50
2023-04-15T17:08:38.748Z,101626.00
2023-04-15T17:11:06.457Z,101632.31
2023-04-15T17:13:33.533Z,101616.41
2023-04-15T17:16:00.573Z,101627.16
2023-04-15T17:18:28.227Z,101619.25
2023-04-15T17:20:58.290Z,101631.66
2023-04-15T17:23:27.135Z,101622.00
2023-04-15T17:25:54.465Z,101629.97
2023-04-15T17:28:21.489Z,101662.56
2023-04-15T17:30:48.632Z,101644.06
2023-04-15T17:33:57.380Z,101650.22
2023-04-15T17:36:02.902Z,101641.38
2023-04-15T17:38:32.487Z,101647.50
2023-04-15T17:41:00.149Z,101652.72
2023-04-15T17:43:27.377Z,101655.34
2023-04-15T17:45:54.583Z,101649.09
2023-04-15T17:48:21.571Z,101671.03
2023-04-15T17:50:51.297Z,101665.69
2023-04-15T17:53:19.052Z,101676.22
2023-04-15T17:55:46.611Z,101674.41
2023-04-15T17:58:13.623Z,101682.31
2023-04-15T18:00:43.188Z,101679.69
2023-04-15T18:03:10.537Z,101669.09
2023-04-15T18:05:37.657Z,101678.75
2023-04-15T18:08:06.589Z,101683.16
2023-04-15T18:10:37.342Z,101689.25
2023-04-15T18:13:04.575Z,101688.31
2023-04-15T18:15:32.296Z,101693.53
2023-04-15T18:18:00.311Z,101683.78
2023-04-15T18:20:27.992Z,101690.75
2023-04-15T18:22:55.778Z,101688.09
2023-04-15T18:25:22.986Z,101683.63
2023-04-15T18:27:50.188Z,101692.41
2023-04-15T18:30:17.217Z,101695.88
2023-04-15T18:32:44.282Z,101702.00
2023-04-15T18:35:11.518Z,101706.31
2023-04-15T18:37:38.694Z,101707.13
2023-04-15T18:40:08.043Z,101706.19
2023-04-15T18:42:35.541Z,101716.69
2023-04-15T18:45:02.521Z,101719.25
2023-04-15T18:47:29.811Z,101713.97
2023-04-15T18:49:58.652Z,101721.88
2023-04-15T18:52:25.842Z,101729.75
2023-04-15T18:54:52.845Z,101734.13
2023-04-15T18:57:31.119Z,101733.28
2023-04-15T19:00:01.657Z,101742.06
2023-04-15T19:02:28.773Z,101738.53
2023-04-15T19:04:56.399Z,101744.69
2023-04-15T19:07:24.007Z,101750.75
2023-04-15T19:09:52.913Z,101745.38
2023-04-15T19:12:20.348Z,101757.69
2023-04-15T19:14:47.335Z,101755.00
2023-04-15T19:17:14.700Z,101761.13
2023-04-15T19:19:41.758Z,101763.69
2023-04-15T19:22:09.656Z,101760.09
2023-04-15T19:24:36.701Z,101761.84
2023-04-15T19:27:04.005Z,101765.38
2023-04-15T19:29:31.064Z,101762.72
2023-04-15T19:31:58.317Z,101773.22
2023-04-15T19:34:25.303Z,101777.59
2023-04-15T19:36:52.546Z,101788.03
2023-04-15T19:39:19.773Z,101789.72
2023-04-15T19:41:47.452Z,101783.53
2023-04-15T19:44:15.938Z,101795.75
2023-04-15T19:46:45.049Z,101788.69
2023-04-15T19:49:12.383Z,101793.91
2023-04-15T19:51:39.505Z,101793.84
2023-04-15T19:54:06.638Z,101806.09
2023-04-15T19:56:34.554Z,101804.34
2023-04-15T19:59:02.313Z,101811.41
2023-04-15T20:01:29.572Z,101810.53
2023-04-15T20:03:56.823Z,101808.72
2023-04-15T20:06:24.299Z,101815.75
2023-04-15T20:08:51.904Z,101817.47
2023-04-15T20:11:19.535Z,101819.16
2023-04-15T20:13:46.779Z,101805.84
2023-04-15T20:16:14.001Z,101812.69
2023-04-15T20:18:41.643Z,101807.34
2023-04-15T20:21:09.032Z,101819.59
2023-04-15T20:23:38.287Z,101815.22
2023-04-15T20:26:05.341Z,101808.22
2023-04-15T20:28:32.545Z,101814.31
2023-04-15T20:31:01.873Z,101815.16
2023-04-15T20:33:29.496Z,101816.00
2023-04-15T20:35:56.657Z,101821.22
2023-04-15T20:38:24.205Z,101814.16
2023-04-15T20:40:51.379Z,101821.09
2023-04-15T20:43:19.096Z,101812.28
2023-04-15T20:45:46.524Z,101824.56
2023-04-15T20:48:14.166Z,101816.66
2023-04-15T20:50:41.684Z,101821.91
2023-04-15T20:53:09.082Z,101820.94
2023-04-15T20:55:36.263Z,101824.41
2023-04-15T20:58:03.502Z,101828.75
2023-04-15T21:00:31.955Z,101824.28
2023-04-15T21:03:02.096Z,101826.00
2023-04-15T21:05:29.178Z,101826.84
2023-04-15T21:07:56.402Z,101831.16
2023-04-15T21:10:23.510Z,101840.78
2023-04-15T21:12:51.666Z,101839.88
2023-04-15T21:15:18.836Z,101839.00
2023-04-15T21:17:46.009Z,101841.66
2023-04-15T21:20:13.529Z,101845.19
2023-04-15T21:22:41.273Z,101847.00
2023-04-15T21:25:09.277Z,101853.19
2023-04-15T21:27:36.304Z,101860.22
2023-04-15T21:30:04.033Z,101846.13
2023-04-15T21:32:31.363Z,101841.66
2023-04-15T21:34:58.549Z,101849.47
2023-04-15T21:37:26.277Z,101854.66
2023-04-15T21:39:53.478Z,101861.50
2023-04-15T21:42:20.822Z,101864.94
2023-04-15T21:44:48.012Z,101859.50
2023-04-15T21:47:15.029Z,101855.88
2023-04-15T21:49:42.454Z,101863.63
2023-04-15T21:52:09.913Z,101874.94
2023-04-15T21:54:38.079Z,101880.19
2023-04-15T21:57:05.291Z,101880.13
2023-04-15T21:59:32.479Z,101885.25
2023-04-15T22:02:00.159Z,101874.69
2023-04-15T22:04:27.612Z,101881.56
2023-04-15T22:06:55.865Z,101880.63
2023-04-15T22:09:22.971Z,101877.00
2023-04-15T22:11:50.042Z,101874.31
2023-04-15T22:14:17.270Z,101869.81
2023-04-15T22:16:44.566Z,101877.63
2023-04-15T22:19:11.732Z,101871.38
2023-04-15T22:21:38.697Z,101874.88
2023-04-15T22:24:38.013Z,101882.69
2023-04-15T22:26:54.142Z,101884.38
2023-04-15T22:29:21.848Z,101887.81
2023-04-15T22:31:49.073Z,101893.03
2023-04-15T22:34:21.235Z,101896.47
2023-04-15T22:36:52.981Z,101900.00
2023-04-15T22:39:21.324Z,101901.75
2023-04-15T22:41:49.613Z,101899.13
2023-04-15T22:44:16.704Z,101901.75
2023-04-15T22:46:43.755Z,101914.03
2023-04-15T22:49:10.912Z,101907.91
2023-04-15T22:51:38.396Z,101911.34
2023-04-15T22:54:05.548Z,101918.28
2023-04-15T22:56:32.800Z,101916.41
2023-04-15T22:58:59.796Z,101925.97
2023-04-15T23:01:26.968Z,101927.69
2023-04-15T23:03:55.585Z,101931.31
2023-04-15T23:06:25.278Z,101934.81
2023-04-15T23:08:53.307Z,101939.16
2023-04-15T23:11:20.466Z,101934.66
2023-04-15T23:13:47.511Z,101938.13
2023-04-15T23:16:14.577Z,101942.50
2023-04-15T23:18:41.674Z,101938.13
2023-04-15T23:21:08.648Z,101938.97
2023-04-15T23:23:35.710Z,101935.34
2023-04-15T23:26:04.037Z,101942.28
2023-04-15T23:28:31.262Z,101937.03
2023-04-15T23:31:00.448Z,101952.81
2023-04-15T23:33:27.907Z,101937.00
2023-04-15T23:35:55.088Z,101943.91
2023-04-15T23:38:22.268Z,101939.53
2023-04-15T23:40:50.749Z,101943.13
2023-04-15T23:43:17.734Z,101951.97
2023-04-15T23:45:44.898Z,101954.63
2023-04-15T23:48:11.906Z,101953.69
2023-04-15T23:50:39.100Z,101959.75
2023-04-15T23:53:06.448Z,101955.28
2023-04-15T23:55:33.396Z,101956.25
2023-04-15T23:58:00.795Z,101949.22
